Davenport, WA

1:12 PM PST on March 04, 2015 (GMT -0800)
RAWS MIDNITE MINE WA US | Change Station
CLOSE
Current Station
Personal Weather Station
Location: Wellpinit, WA
Elevation: 2884 ft
Nearby Weather Stations

Elev 2884 ft 47.94 °N, 118.09 °W | Updated 33 minutes ago

Clear
Clear
43 °F
Feels Like 41 °F
N
4
Wind Variable Wind from SW
Gusts 11.0 mph

Today
High -- | Low -- °F
--% Chance of Precip.
Yesterday
High -- | Low -- °F
Precip. -- in
6:27 AM 5:41 PM
Waxing Gibbous, 99% visible
Pressure 30.32 in
Visibility 10.0 miles
Clouds Clear
Windchill 41 °F
Dew Point 11 °F
Humidity 27%
Rainfall 0.00 in
Snow Depth Not available.
UV 4 out of 12
Pollen 3.20 out of 12
Air Quality Not available.
Flu Activity Not available.
METAR KSKA 042058Z 20008KT 10SM CLR 06/M08 A3024 RMK AO2A SLP265 P0000 60000 58007 $

More Conditions Fewer Conditions

Pressure 30.32 in
Visibility 10.0 miles
Clouds Clear
Windchill 41 °F
Dew Point 11 °F
Humidity 27%
Rainfall 0.00 in
Snow Depth Not available.
UV 4 out of 12
Pollen 3.20 out of 12
Air Quality Not available.
Flu Activity Not available.
METAR KSKA 042058Z 20008KT 10SM CLR 06/M08 A3024 RMK AO2A SLP265 P0000 60000 58007 $

More Conditions Fewer Conditions

10-Day Weather Forecast

Almanac

Astronomy

Mar. 04, 2015 Rise Set
Actual Time
Civil Twilight
Nautical Twilight
Astronomical Twilight
Moon
Length of Visible Light
Length of Day
Tomorrow will be .
, % of the Moon is Illuminated

Today's Extremes

State Highs State Lows

Community

WunderPhotos

Upload Photos

1,802,586 photos uploaded!

WunderBlogs® & News

Nearby

Air Quality

  Air Quality AQ Index Pollutant
Not available.

Snow Depth

Station Depth Elevation

Earthquake Activity

City Distance Mag. Time & Date
Minimum magnitude displayed is 2.5.

Coastal Water Temperatures

Place Temperature

Nearby Weather Stations